createdAt,value
2022-09-22T00:01:33.288Z,57.73
2022-09-22T00:04:06.160Z,57.38
2022-09-22T00:06:47.257Z,56.26
2022-09-22T00:09:20.058Z,56.77
2022-09-22T00:11:55.357Z,56.69
2022-09-22T00:14:25.944Z,55.75
2022-09-22T00:16:56.284Z,56.66
2022-09-22T00:19:27.370Z,57.47
2022-09-22T00:21:55.469Z,57.88
2022-09-22T00:24:24.677Z,57.80
2022-09-22T00:26:56.897Z,57.30
2022-09-22T00:29:29.382Z,58.22
2022-09-22T00:31:57.448Z,58.25
2022-09-22T00:34:26.949Z,58.26
2022-09-22T00:36:55.468Z,58.71
2022-09-22T00:39:22.836Z,58.57
2022-09-22T00:41:52.800Z,58.04
2022-09-22T00:44:40.566Z,57.37
2022-09-22T00:47:30.092Z,57.10
2022-09-22T00:50:05.388Z,56.67
2022-09-22T00:52:37.627Z,57.26
2022-09-22T00:55:10.703Z,57.95
2022-09-22T00:57:41.540Z,58.10
2022-09-22T01:00:10.997Z,58.45
2022-09-22T01:02:38.576Z,59.35
2022-09-22T01:05:06.434Z,58.42
2022-09-22T01:07:34.243Z,57.54
2022-09-22T01:10:01.898Z,57.56
2022-09-22T01:12:30.937Z,57.59
2022-09-22T01:15:09.676Z,58.03
2022-09-22T01:17:49.477Z,58.37
2022-09-22T01:20:46.601Z,58.07
2022-09-22T01:23:50.356Z,58.33
2022-09-22T01:26:23.502Z,58.44
2022-09-22T01:29:23.341Z,58.42
2022-09-22T01:32:18.248Z,59.02
2022-09-22T01:35:20.862Z,58.00
2022-09-22T01:38:06.237Z,58.65
2022-09-22T01:40:45.360Z,58.82
2022-09-22T01:43:23.578Z,58.87
2022-09-22T01:45:52.704Z,59.19
2022-09-22T01:48:24.912Z,59.58
2022-09-22T01:50:59.148Z,60.61
2022-09-22T01:53:31.795Z,60.86
2022-09-22T01:56:05.520Z,61.13
2022-09-22T01:58:38.381Z,61.47
2022-09-22T02:01:28.918Z,61.86
2022-09-22T02:04:19.101Z,62.02
2022-09-22T02:07:03.259Z,61.67
2022-09-22T02:09:35.316Z,62.05
2022-09-22T02:12:03.846Z,62.13
2022-09-22T02:14:31.464Z,61.76
2022-09-22T02:17:00.153Z,61.47
2022-09-22T02:19:38.071Z,61.97
2022-09-22T02:22:07.607Z,61.40
2022-09-22T02:24:41.804Z,61.32
2022-09-22T02:27:15.710Z,61.27
2022-09-22T02:29:49.489Z,62.03
2022-09-22T02:32:18.016Z,62.98
2022-09-22T02:34:47.141Z,63.63
2022-09-22T02:37:35.443Z,63.93
2022-09-22T02:40:24.449Z,63.99
2022-09-22T02:43:01.798Z,64.30
2022-09-22T02:45:40.881Z,63.72
2022-09-22T02:48:24.856Z,63.86
2022-09-22T02:50:54.106Z,64.08
2022-09-22T02:53:21.454Z,64.11
2022-09-22T02:55:49.485Z,64.14
2022-09-22T02:58:17.521Z,63.94
2022-09-22T03:00:45.660Z,63.68
2022-09-22T03:03:13.336Z,63.63
2022-09-22T03:05:40.721Z,63.06
2022-09-22T03:08:08.179Z,63.00
2022-09-22T03:10:37.582Z,62.82
2022-09-22T03:13:20.235Z,62.98
2022-09-22T03:15:48.245Z,62.26
2022-09-22T03:18:15.637Z,62.91
2022-09-22T03:20:43.062Z,62.06
2022-09-22T03:23:10.553Z,62.28
2022-09-22T03:25:38.117Z,61.84
2022-09-22T03:28:07.341Z,61.59
2022-09-22T03:30:36.059Z,61.69
2022-09-22T03:33:03.856Z,61.67
2022-09-22T03:35:31.220Z,61.29
2022-09-22T03:37:58.649Z,59.96
2022-09-22T03:40:26.136Z,59.97
2022-09-22T03:42:53.477Z,59.74
2022-09-22T03:45:21.042Z,59.11
2022-09-22T03:47:48.564Z,59.19
2022-09-22T03:50:15.846Z,59.75
2022-09-22T03:52:44.179Z,60.00
2022-09-22T03:55:12.622Z,59.80
2022-09-22T03:57:43.809Z,59.51
2022-09-22T04:00:11.820Z,60.00
2022-09-22T04:02:41.866Z,60.03
2022-09-22T04:05:10.639Z,60.20
2022-09-22T04:07:39.162Z,59.92
2022-09-22T04:10:06.672Z,59.89
2022-09-22T04:12:34.123Z,58.30
2022-09-22T04:15:01.444Z,59.02
2022-09-22T04:17:28.797Z,57.27
2022-09-22T04:19:57.567Z,58.05
2022-09-22T04:22:24.987Z,58.28
2022-09-22T04:24:52.409Z,58.07
2022-09-22T04:27:20.929Z,56.70
2022-09-22T04:29:49.299Z,55.50
2022-09-22T04:32:18.040Z,55.74
2022-09-22T04:34:46.198Z,57.40
2022-09-22T04:37:15.774Z,57.40
2022-09-22T04:39:43.149Z,55.83
2022-09-22T04:42:12.750Z,56.68
2022-09-22T04:44:42.993Z,56.15
2022-09-22T04:47:17.533Z,55.78
2022-09-22T04:49:45.835Z,56.70
2022-09-22T04:52:13.105Z,56.74
2022-09-22T04:54:40.520Z,56.48
2022-09-22T04:57:09.311Z,54.89
2022-09-22T04:59:36.720Z,54.47
2022-09-22T05:02:04.101Z,52.50
2022-09-22T05:04:31.420Z,52.10
2022-09-22T05:06:58.826Z,51.28
2022-09-22T05:09:26.250Z,51.59
2022-09-22T05:11:55.358Z,52.35
2022-09-22T05:14:26.343Z,52.33
2022-09-22T05:16:57.208Z,52.01
2022-09-22T05:19:24.640Z,49.99
2022-09-22T05:21:53.885Z,49.78
2022-09-22T05:24:22.176Z,50.34
2022-09-22T05:26:49.780Z,49.72
2022-09-22T05:29:28.265Z,49.76
2022-09-22T05:31:56.270Z,48.75
2022-09-22T05:34:26.750Z,48.09
2022-09-22T05:36:56.627Z,48.11
2022-09-22T05:39:31.320Z,47.63
2022-09-22T05:41:58.819Z,47.62
2022-09-22T05:44:26.148Z,47.49
2022-09-22T05:46:53.441Z,47.37
2022-09-22T05:49:23.440Z,46.89
2022-09-22T05:51:55.507Z,46.25
2022-09-22T05:54:25.488Z,46.66
2022-09-22T05:56:52.781Z,46.04
2022-09-22T05:59:20.099Z,46.05
2022-09-22T06:01:47.536Z,45.60
2022-09-22T06:04:16.312Z,44.59
2022-09-22T06:06:44.012Z,43.31
2022-09-22T06:09:11.407Z,43.65
2022-09-22T06:11:38.749Z,43.71
2022-09-22T06:14:08.743Z,43.77
2022-09-22T06:16:36.161Z,43.42
2022-09-22T06:19:03.879Z,43.12
2022-09-22T06:21:31.493Z,42.71
2022-09-22T06:23:58.841Z,42.73
2022-09-22T06:26:32.362Z,42.50
2022-09-22T06:28:59.790Z,42.49
2022-09-22T06:31:27.197Z,42.65
2022-09-22T06:33:54.906Z,40.82
2022-09-22T06:36:30.682Z,40.16
2022-09-22T06:39:01.974Z,40.38
2022-09-22T06:41:32.515Z,39.66
2022-09-22T06:44:03.245Z,39.40
2022-09-22T06:46:33.388Z,39.32
2022-09-22T06:49:01.255Z,39.29
2022-09-22T06:51:33.136Z,39.35
2022-09-22T06:54:04.422Z,38.82
2022-09-22T06:56:38.263Z,38.89
2022-09-22T06:59:11.234Z,38.70
2022-09-22T07:01:39.671Z,38.45
2022-09-22T07:04:07.146Z,38.07
2022-09-22T07:06:36.139Z,37.02
2022-09-22T07:09:05.095Z,36.93
2022-09-22T07:11:35.248Z,36.76
2022-09-22T07:14:06.309Z,35.90
2022-09-22T07:16:33.718Z,35.78
2022-09-22T07:19:01.225Z,36.70
2022-09-22T07:21:36.701Z,34.06
2022-09-22T07:24:05.812Z,34.27
2022-09-22T07:26:38.339Z,35.61
2022-09-22T07:29:11.891Z,34.84
2022-09-22T07:31:41.291Z,34.11
2022-09-22T07:34:08.599Z,33.06
2022-09-22T07:36:40.446Z,32.71
2022-09-22T07:39:11.392Z,31.76
2022-09-22T07:41:43.854Z,31.68
2022-09-22T07:44:32.891Z,31.05
2022-09-22T07:47:01.426Z,31.13
2022-09-22T07:49:31.711Z,30.38
2022-09-22T07:51:59.482Z,30.63
2022-09-22T07:54:27.480Z,31.01
2022-09-22T07:57:01.192Z,30.36
2022-09-22T07:59:28.668Z,29.97
2022-09-22T08:01:56.233Z,29.29
2022-09-22T08:04:24.298Z,30.28
2022-09-22T08:06:57.371Z,29.59
2022-09-22T08:09:25.976Z,29.59
2022-09-22T08:11:53.713Z,29.46
2022-09-22T08:14:23.961Z,29.23
2022-09-22T08:16:53.879Z,29.65
2022-09-22T08:19:23.910Z,29.27
2022-09-22T08:21:54.445Z,29.16
2022-09-22T08:24:23.334Z,29.49
2022-09-22T08:26:53.003Z,29.03
2022-09-22T08:29:24.154Z,28.90
2022-09-22T08:31:55.210Z,28.73
2022-09-22T08:34:22.700Z,27.70
2022-09-22T08:36:50.391Z,28.02
2022-09-22T08:39:18.620Z,27.57
2022-09-22T08:41:55.557Z,26.82
2022-09-22T08:44:38.389Z,27.15
2022-09-22T08:47:06.243Z,26.83
2022-09-22T08:50:02.293Z,26.66
2022-09-22T08:52:39.158Z,26.95
2022-09-22T08:55:16.225Z,26.10
2022-09-22T08:58:07.560Z,24.79
2022-09-22T09:00:51.166Z,24.82
2022-09-22T09:03:24.379Z,24.64
2022-09-22T09:06:12.943Z,24.12
2022-09-22T09:09:12.386Z,24.54
2022-09-22T09:12:03.473Z,24.21
2022-09-22T09:15:09.170Z,25.52
2022-09-22T09:17:39.171Z,25.71
2022-09-22T09:20:29.741Z,24.45
2022-09-22T09:22:59.630Z,24.30
2022-09-22T09:25:31.869Z,24.44
2022-09-22T09:28:15.470Z,25.15
2022-09-22T09:30:56.761Z,25.67
2022-09-22T09:33:34.000Z,25.41
2022-09-22T09:36:02.403Z,25.19
2022-09-22T09:38:42.393Z,24.66
2022-09-22T09:41:16.717Z,26.62
2022-09-22T09:43:53.153Z,25.86
2022-09-22T09:46:48.253Z,24.92
2022-09-22T09:49:20.633Z,24.72
2022-09-22T09:51:54.166Z,24.46
2022-09-22T09:54:21.529Z,24.92
2022-09-22T09:57:27.447Z,25.48
2022-09-22T10:00:33.846Z,25.60
2022-09-22T10:03:06.062Z,25.40
2022-09-22T10:05:37.820Z,25.27
2022-09-22T10:08:17.925Z,24.91
2022-09-22T10:10:46.282Z,24.72
2022-09-22T10:13:16.066Z,24.11
2022-09-22T10:16:04.163Z,23.80
2022-09-22T10:18:42.698Z,24.61
2022-09-22T10:21:22.166Z,24.48
2022-09-22T10:23:54.276Z,23.68
2022-09-22T10:26:32.546Z,24.16
2022-09-22T10:29:18.666Z,24.79
2022-09-22T10:32:07.776Z,24.03
2022-09-22T10:34:39.839Z,24.08
2022-09-22T10:37:12.555Z,23.47
2022-09-22T10:39:54.253Z,22.62
2022-09-22T10:42:38.346Z,23.08
2022-09-22T10:45:10.799Z,24.48
2022-09-22T10:48:04.357Z,24.52
2022-09-22T10:51:09.497Z,23.60
2022-09-22T10:54:05.504Z,24.07
2022-09-22T10:56:37.881Z,23.76
2022-09-22T10:59:18.712Z,22.88
2022-09-22T11:01:51.896Z,23.70
2022-09-22T11:04:31.414Z,24.27
2022-09-22T11:07:38.974Z,23.80
2022-09-22T11:10:33.641Z,23.03
2022-09-22T11:13:29.234Z,23.17
2022-09-22T11:16:02.600Z,23.30
2022-09-22T11:18:39.841Z,23.70
2022-09-22T11:21:37.381Z,23.96
2022-09-22T11:24:10.565Z,23.42
2022-09-22T11:26:45.815Z,22.58
2022-09-22T11:29:36.201Z,23.13
2022-09-22T11:32:23.809Z,23.87
2022-09-22T11:35:19.320Z,23.82
2022-09-22T11:38:21.664Z,23.54
2022-09-22T11:41:03.838Z,21.94
2022-09-22T11:43:57.032Z,19.51
2022-09-22T11:46:37.104Z,19.81
2022-09-22T11:49:42.077Z,19.65
2022-09-22T11:52:43.580Z,18.79
2022-09-22T11:55:42.012Z,19.16
2022-09-22T11:58:18.010Z,20.26
2022-09-22T12:00:52.196Z,20.61
2022-09-22T12:03:32.039Z,20.57
2022-09-22T12:06:06.055Z,21.92
2022-09-22T12:08:39.180Z,22.09
2022-09-22T12:11:14.402Z,22.32
2022-09-22T12:13:50.193Z,22.29
2022-09-22T12:16:26.638Z,22.99
2022-09-22T12:19:25.385Z,22.43
2022-09-22T12:22:29.034Z,22.54
2022-09-22T12:24:56.476Z,22.99
2022-09-22T12:27:27.717Z,22.59
2022-09-22T12:30:01.241Z,22.30
2022-09-22T12:32:37.203Z,22.13
2022-09-22T12:35:06.273Z,22.56
2022-09-22T12:37:39.439Z,22.56
2022-09-22T12:40:19.437Z,23.71
2022-09-22T12:42:51.620Z,23.75
2022-09-22T12:45:36.700Z,23.50
2022-09-22T12:48:26.933Z,23.89
2022-09-22T12:51:26.406Z,24.09
2022-09-22T12:54:22.924Z,24.21
2022-09-22T12:59:39.349Z,24.18
2022-09-22T13:02:19.074Z,23.53
2022-09-22T13:04:56.134Z,23.72
2022-09-22T13:07:38.915Z,24.28
2022-09-22T13:10:47.325Z,24.02
2022-09-22T13:13:52.177Z,24.12
2022-09-22T13:16:38.986Z,25.00
2022-09-22T13:19:13.860Z,24.93
2022-09-22T13:21:47.747Z,24.73
2022-09-22T13:24:27.490Z,24.80
2022-09-22T13:27:12.857Z,24.29
2022-09-22T13:30:08.099Z,24.30
2022-09-22T13:32:36.576Z,24.02
2022-09-22T13:35:40.048Z,24.63
2022-09-22T13:38:19.608Z,24.38
2022-09-22T13:40:50.651Z,24.43
2022-09-22T13:43:38.597Z,24.51
2022-09-22T13:46:09.868Z,24.36
2022-09-22T13:48:44.385Z,24.93
2022-09-22T13:51:17.252Z,24.58
2022-09-22T13:53:53.087Z,23.93
2022-09-22T13:56:29.796Z,24.19
2022-09-22T13:59:06.627Z,24.04
2022-09-22T14:01:37.322Z,24.43
2022-09-22T14:04:25.910Z,24.66
2022-09-22T14:07:01.487Z,24.77
2022-09-22T14:09:31.070Z,24.30
2022-09-22T14:11:58.748Z,24.65
2022-09-22T14:14:27.634Z,24.64
2022-09-22T14:17:27.231Z,25.41
2022-09-22T14:20:13.465Z,26.72
2022-09-22T14:22:44.976Z,26.50
2022-09-22T14:25:25.119Z,26.22
2022-09-22T14:28:14.520Z,26.18
2022-09-22T14:30:46.081Z,26.21
2022-09-22T14:33:25.753Z,26.44
2022-09-22T14:36:04.305Z,26.10
2022-09-22T14:42:13.570Z,27.54
2022-09-22T14:44:55.381Z,28.08
2022-09-22T14:47:28.732Z,28.44
2022-09-22T14:50:14.007Z,28.59
2022-09-22T14:53:19.959Z,28.65
2022-09-22T14:56:16.882Z,28.46
2022-09-22T14:58:51.184Z,28.60
2022-09-22T15:01:41.352Z,28.54
2022-09-22T15:04:15.059Z,29.03
2022-09-22T15:06:43.483Z,29.79
2022-09-22T15:09:24.402Z,29.73
2022-09-22T15:12:03.809Z,29.90
2022-09-22T15:14:43.360Z,30.25
2022-09-22T15:17:55.785Z,30.61
2022-09-22T15:20:42.912Z,33.00
2022-09-22T15:23:23.280Z,34.02
2022-09-22T15:31:34.626Z,34.64
2022-09-22T15:34:04.420Z,34.44
2022-09-22T15:39:29.537Z,34.49
2022-09-22T15:42:00.222Z,35.60
2022-09-22T15:44:28.792Z,36.87
2022-09-22T15:47:01.473Z,37.73
2022-09-22T15:49:46.107Z,38.65
2022-09-22T15:52:19.963Z,38.70
2022-09-22T15:54:48.509Z,39.31
2022-09-22T15:57:23.544Z,39.50
2022-09-22T15:59:57.920Z,39.28
2022-09-22T16:02:28.581Z,39.43
2022-09-22T16:04:59.231Z,39.60
2022-09-22T16:07:29.396Z,39.52
2022-09-22T16:10:02.277Z,39.72
2022-09-22T16:17:25.054Z,40.29
2022-09-22T16:20:21.917Z,40.34
2022-09-22T16:22:52.397Z,40.26
2022-09-22T16:25:20.818Z,40.54
2022-09-22T16:27:50.652Z,40.68
2022-09-22T16:30:18.151Z,40.93
2022-09-22T16:32:48.144Z,41.29
2022-09-22T16:35:17.099Z,41.46
2022-09-22T16:37:47.618Z,41.78
2022-09-22T16:40:17.277Z,41.83
2022-09-22T16:42:48.198Z,42.12
2022-09-22T16:45:15.708Z,42.42
2022-09-22T16:47:43.066Z,42.86
2022-09-22T16:50:12.758Z,43.01
2022-09-22T16:52:40.227Z,43.15
2022-09-22T16:55:14.899Z,43.15
2022-09-22T16:57:45.283Z,43.56
2022-09-22T17:00:19.720Z,43.75
2022-09-22T17:02:49.295Z,43.93
2022-09-22T17:05:19.086Z,44.14
2022-09-22T17:07:49.566Z,44.25
2022-09-22T17:10:17.185Z,44.62
2022-09-22T17:12:44.807Z,44.76
2022-09-22T17:15:16.818Z,45.23
2022-09-22T17:17:44.201Z,45.46
2022-09-22T17:20:11.732Z,45.39
2022-09-22T17:22:39.266Z,45.54
2022-09-22T17:25:07.317Z,45.47
2022-09-22T17:27:34.751Z,45.90
2022-09-22T17:30:02.616Z,45.88
2022-09-22T17:32:30.448Z,46.87
2022-09-22T17:35:06.108Z,46.64
2022-09-22T17:37:37.948Z,46.71
2022-09-22T17:40:05.767Z,47.03
2022-09-22T17:42:44.244Z,46.74
2022-09-22T17:45:12.066Z,46.74
2022-09-22T17:47:57.669Z,47.03
2022-09-22T17:50:43.231Z,47.35
2022-09-22T17:53:31.414Z,47.49
2022-09-22T17:56:03.930Z,48.14
2022-09-22T17:58:31.301Z,48.45
2022-09-22T18:01:00.664Z,48.43
2022-09-22T18:03:28.150Z,48.23
2022-09-22T18:05:58.830Z,48.49
2022-09-22T18:08:26.095Z,48.26
2022-09-22T18:10:54.701Z,48.50
2022-09-22T18:13:22.220Z,48.55
2022-09-22T18:15:51.183Z,49.18
2022-09-22T18:18:18.631Z,48.42
2022-09-22T18:20:45.987Z,48.54
2022-09-22T18:23:14.274Z,48.69
2022-09-22T18:25:47.597Z,48.94
2022-09-22T18:28:15.318Z,48.62
2022-09-22T18:30:45.240Z,48.55
2022-09-22T18:33:13.166Z,48.21
2022-09-22T18:35:46.094Z,48.59
2022-09-22T18:38:16.676Z,48.57
2022-09-22T18:40:44.149Z,48.55
2022-09-22T18:43:11.615Z,49.30
2022-09-22T18:45:38.980Z,50.17
2022-09-22T18:48:07.393Z,50.32
2022-09-22T18:50:35.992Z,50.75
2022-09-22T18:53:03.531Z,50.99
2022-09-22T18:55:32.767Z,51.73
2022-09-22T18:58:02.804Z,51.59
2022-09-22T19:00:30.296Z,51.81
2022-09-22T19:02:58.938Z,51.12
2022-09-22T19:05:26.440Z,51.58
2022-09-22T19:07:55.053Z,52.09
2022-09-22T19:10:23.715Z,52.26
2022-09-22T19:12:51.273Z,52.18
2022-09-22T19:15:19.602Z,52.07
2022-09-22T19:17:48.820Z,52.38
2022-09-22T19:20:21.157Z,52.62
2022-09-22T19:22:50.663Z,53.27
2022-09-22T19:25:21.864Z,53.34
2022-09-22T19:27:53.428Z,53.08
2022-09-22T19:30:24.013Z,53.34
2022-09-22T19:32:54.776Z,53.31
2022-09-22T19:35:22.534Z,53.49
2022-09-22T19:37:52.150Z,53.09
2022-09-22T19:40:20.442Z,53.47
2022-09-22T19:42:48.064Z,54.31
2022-09-22T19:45:15.946Z,54.55
2022-09-22T19:47:43.344Z,54.76
2022-09-22T19:50:10.774Z,54.95
2022-09-22T19:52:38.497Z,54.50
2022-09-22T19:55:09.576Z,54.52
2022-09-22T19:57:38.599Z,54.66
2022-09-22T20:00:06.478Z,54.52
2022-09-22T20:02:39.134Z,54.56
2022-09-22T20:05:19.416Z,54.79
2022-09-22T20:07:48.857Z,54.89
2022-09-22T20:10:19.341Z,55.40
2022-09-22T20:12:46.932Z,55.65
2022-09-22T20:15:17.103Z,55.85
2022-09-22T20:17:46.532Z,56.52
2022-09-22T20:20:20.023Z,56.27
2022-09-22T20:22:52.652Z,56.33
2022-09-22T20:25:25.491Z,56.65
2022-09-22T20:27:52.967Z,56.31
2022-09-22T20:30:20.415Z,56.43
2022-09-22T20:32:48.421Z,56.72
2022-09-22T20:35:18.261Z,56.13
2022-09-22T20:37:45.716Z,56.44
2022-09-22T20:40:16.473Z,56.58
2022-09-22T20:42:45.442Z,57.22
2022-09-22T20:45:13.951Z,56.48
2022-09-22T20:47:41.453Z,56.20
2022-09-22T20:50:10.221Z,55.51
2022-09-22T20:52:37.911Z,55.46
2022-09-22T20:55:05.670Z,54.96
2022-09-22T20:57:33.085Z,54.75
2022-09-22T21:00:01.495Z,53.45
2022-09-22T21:02:29.432Z,54.34
2022-09-22T21:04:57.513Z,54.05
2022-09-22T21:07:25.174Z,54.25
2022-09-22T21:10:11.170Z,54.42
2022-09-22T21:12:38.733Z,53.51
2022-09-22T21:15:06.635Z,53.47
2022-09-22T21:17:35.666Z,53.63
2022-09-22T21:20:03.306Z,53.15
2022-09-22T21:22:33.771Z,53.11
2022-09-22T21:25:02.182Z,52.55
2022-09-22T21:27:29.658Z,51.54
2022-09-22T21:29:57.033Z,51.77
2022-09-22T21:32:24.436Z,51.53
2022-09-22T21:34:51.846Z,51.79
2022-09-22T21:37:19.283Z,51.34
2022-09-22T21:39:46.841Z,52.00
2022-09-22T21:42:14.351Z,52.37
2022-09-22T21:44:42.265Z,51.87
2022-09-22T21:47:09.736Z,52.13
2022-09-22T21:49:37.170Z,52.46
2022-09-22T21:52:05.616Z,52.81
2022-09-22T21:54:33.032Z,52.18
2022-09-22T21:57:02.736Z,52.66
2022-09-22T21:59:33.847Z,52.38
2022-09-22T22:02:01.362Z,52.38
2022-09-22T22:04:28.803Z,52.24
2022-09-22T22:06:56.308Z,51.97
2022-09-22T22:09:25.571Z,51.58
2022-09-22T22:11:59.196Z,52.31
2022-09-22T22:14:33.728Z,51.72
2022-09-22T22:17:04.169Z,52.41
2022-09-22T22:19:34.334Z,52.82
2022-09-22T22:22:01.948Z,52.39
2022-09-22T22:24:32.159Z,52.49
2022-09-22T22:27:02.632Z,51.67
2022-09-22T22:29:36.048Z,51.97
2022-09-22T22:32:05.719Z,51.55
2022-09-22T22:34:33.515Z,51.99
2022-09-22T22:37:01.102Z,52.50
2022-09-22T22:39:28.598Z,51.67
2022-09-22T22:41:56.042Z,51.90
2022-09-22T22:44:23.642Z,52.46
2022-09-22T22:46:51.342Z,52.32
2022-09-22T22:49:18.954Z,52.91
2022-09-22T22:51:46.499Z,52.76
2022-09-22T22:54:14.705Z,52.27
2022-09-22T22:56:43.765Z,53.28
2022-09-22T22:59:13.230Z,53.44
2022-09-22T23:01:41.882Z,54.44
2022-09-22T23:04:11.009Z,54.73
2022-09-22T23:06:41.975Z,54.61
2022-09-22T23:09:13.433Z,54.65
2022-09-22T23:11:43.239Z,54.57
2022-09-22T23:14:13.103Z,56.63
2022-09-22T23:16:47.598Z,57.66
2022-09-22T23:19:17.402Z,57.22
2022-09-22T23:21:45.713Z,56.70
2022-09-22T23:24:15.955Z,56.45
2022-09-22T23:26:44.041Z,56.20
2022-09-22T23:29:11.545Z,57.50
2022-09-22T23:31:38.849Z,57.17
2022-09-22T23:34:06.196Z,55.88
2022-09-22T23:36:33.700Z,55.20
2022-09-22T23:39:04.360Z,54.93
2022-09-22T23:41:37.398Z,56.24
2022-09-22T23:44:07.148Z,56.71
2022-09-22T23:46:35.354Z,56.87
2022-09-22T23:49:02.733Z,57.44
2022-09-22T23:51:31.101Z,58.37
2022-09-22T23:53:58.802Z,58.91
2022-09-22T23:56:26.386Z,58.79
2022-09-22T23:58:53.997Z,60.79
